Aviation Digital Data Service (ADDS)

Output produced by METARs form (0017 UTC 19 December 2018)
found at http://aviationweather.gov/metar/data/
 
METAR text: EDMA 182350Z AUTO 10005KT 8000 // BKN007/// M00/M02 Q1019
Conditions at: EDMA (AUGSBURG/MULHAUS, DE) observed 2350 UTC 18 December 2018
Temperature: 0.0°C (32°F)
Dewpoint: -2.0°C (28°F) [RH = 86%]
Pressure (altimeter): 30.09 inches Hg (1019.0 mb)
Winds: from the E (100 degrees) at 6 MPH (5 knots; 2.6 m/s)
Visibility: 5 miles ( 8 km)
Ceiling: 700 feet AGL
Clouds: broken clouds at 700 feet AGL
Weather: no significant weather observed at this time

Forecast for: AMD
Text: TAF AMD EDMA 182007Z 1820/1903 03007KT 7000 OVC005
Forecast period: 2000 UTC 18 December 2018 to 0300 UTC 19 December 2018
Forecast type: FROM: standard forecast or significant change
Winds: from the NNE (30 degrees) at 8 MPH (7 knots; 3.6 m/s)
Visibility: 4 miles (7 km)
Ceiling: 500 feet AGL
Clouds: overcast cloud deck at 500 feet AGL
Weather: no significant weather forecast for this period
Text: TEMPO 1820/1903 3000 BR OVC003
Forecast period: 2000 UTC 18 December 2018 to 0300 UTC 19 December 2018
Forecast type: TEMPORARY: The following changes expected for less than half the time period
Visibility: 1.86 miles (2.99 km)
Ceiling: 300 feet AGL
Clouds: overcast cloud deck at 300 feet AGL
Weather: BR  (mist)